createdAt,value
2017-01-15T00:00:06.148Z,1015.73
2017-01-15T00:00:46.738Z,1015.79
2017-01-15T00:01:27.315Z,1015.78
2017-01-15T00:02:07.894Z,1015.73
2017-01-15T00:02:48.486Z,1015.73
2017-01-15T00:03:29.066Z,1015.75
2017-01-15T00:04:09.656Z,1015.67
2017-01-15T00:04:50.240Z,1015.68
2017-01-15T00:05:30.837Z,1015.69
2017-01-15T00:06:11.418Z,1015.68
2017-01-15T00:06:52.006Z,1015.68
2017-01-15T00:07:32.591Z,1015.68
2017-01-15T00:08:13.187Z,1015.66
2017-01-15T00:08:53.769Z,1015.65
2017-01-15T00:09:34.368Z,1015.7
2017-01-15T00:10:14.958Z,1015.65
2017-01-15T00:10:56.487Z,1015.66
2017-01-15T00:11:37.083Z,1015.66
2017-01-15T00:12:17.675Z,1015.67
2017-01-15T00:12:58.271Z,1015.61
2017-01-15T00:13:38.871Z,1015.62
2017-01-15T00:14:19.452Z,1015.61
2017-01-15T00:15:00.051Z,1015.59
2017-01-15T00:15:40.634Z,1015.6
2017-01-15T00:16:21.240Z,1015.58
2017-01-15T00:17:01.865Z,1015.6
2017-01-15T00:17:42.460Z,1015.61
2017-01-15T00:18:23.055Z,1015.58
2017-01-15T00:19:03.665Z,1015.61
2017-01-15T00:19:44.265Z,1015.55
2017-01-15T00:20:24.847Z,1015.57
2017-01-15T00:21:05.447Z,1015.55
2017-01-15T00:21:46.028Z,1015.57
2017-01-15T00:22:26.614Z,1015.57
2017-01-15T00:23:07.199Z,1015.59
2017-01-15T00:23:47.776Z,1015.57
2017-01-15T00:24:28.376Z,1015.6
2017-01-15T00:25:08.965Z,1015.6
2017-01-15T00:25:49.555Z,1015.6
2017-01-15T00:26:30.132Z,1015.63
2017-01-15T00:27:10.707Z,1015.65
2017-01-15T00:27:51.309Z,1015.63
2017-01-15T00:28:31.928Z,1015.67
2017-01-15T00:29:12.515Z,1015.66
2017-01-15T00:29:53.099Z,1015.64
2017-01-15T00:30:33.679Z,1015.63
2017-01-15T00:31:14.266Z,1015.61
2017-01-15T00:31:54.883Z,1015.62
2017-01-15T00:32:35.475Z,1015.62
2017-01-15T00:33:16.073Z,1015.62
2017-01-15T00:33:56.661Z,1015.62
2017-01-15T00:34:37.239Z,1015.62
2017-01-15T00:35:17.826Z,1015.6
2017-01-15T00:35:58.415Z,1015.63
2017-01-15T00:36:38.994Z,1015.62
2017-01-15T00:37:19.588Z,1015.61
2017-01-15T00:38:00.184Z,1015.6
2017-01-15T00:38:40.784Z,1015.58
2017-01-15T00:39:21.391Z,1015.6
2017-01-15T00:40:01.991Z,1015.6
2017-01-15T00:40:42.588Z,1015.6
2017-01-15T00:41:23.187Z,1015.65
2017-01-15T00:42:03.773Z,1015.6
2017-01-15T00:42:44.359Z,1015.67
2017-01-15T00:43:24.957Z,1015.63
2017-01-15T00:44:05.548Z,1015.63
2017-01-15T00:44:46.139Z,1015.6
2017-01-15T00:45:26.720Z,1015.64
2017-01-15T00:46:07.309Z,1015.65
2017-01-15T00:46:47.911Z,1015.7
2017-01-15T00:47:28.525Z,1015.65
2017-01-15T00:48:09.125Z,1015.67
2017-01-15T00:48:49.722Z,1015.66
2017-01-15T00:49:30.304Z,1015.68
2017-01-15T00:50:10.919Z,1015.61
2017-01-15T00:50:51.523Z,1015.63
2017-01-15T00:51:32.124Z,1015.6
2017-01-15T00:52:12.730Z,1015.65
2017-01-15T00:52:53.333Z,1015.66
2017-01-15T00:53:33.916Z,1015.65
2017-01-15T00:54:14.501Z,1015.63
2017-01-15T00:54:55.087Z,1015.61
2017-01-15T00:55:35.674Z,1015.6
2017-01-15T00:56:16.252Z,1015.59
2017-01-15T00:56:56.846Z,1015.61
2017-01-15T00:57:37.442Z,1015.56
2017-01-15T00:58:18.055Z,1015.53
2017-01-15T00:58:58.636Z,1015.52
2017-01-15T00:59:39.228Z,1015.51
2017-01-15T01:00:19.813Z,1015.56
2017-01-15T01:01:00.407Z,1015.54
2017-01-15T01:01:40.996Z,1015.55
2017-01-15T01:02:21.580Z,1015.54
2017-01-15T01:03:02.164Z,1015.53
2017-01-15T01:03:42.763Z,1015.54
2017-01-15T01:04:23.349Z,1015.57
2017-01-15T01:05:03.927Z,1015.59
2017-01-15T01:05:44.512Z,1015.58
2017-01-15T01:06:25.095Z,1015.56
2017-01-15T01:07:05.671Z,1015.59
2017-01-15T01:07:46.251Z,1015.6
2017-01-15T01:08:26.846Z,1015.59
2017-01-15T01:09:07.429Z,1015.62
2017-01-15T01:09:48.014Z,1015.57
2017-01-15T01:10:28.613Z,1015.58
2017-01-15T01:11:09.190Z,1015.62
2017-01-15T01:11:49.771Z,1015.56
2017-01-15T01:12:30.361Z,1015.58
2017-01-15T01:13:10.958Z,1015.58
2017-01-15T01:13:51.539Z,1015.61
2017-01-15T01:14:32.155Z,1015.61
2017-01-15T01:15:12.731Z,1015.59
2017-01-15T01:15:53.320Z,1015.6
2017-01-15T01:16:33.904Z,1015.58
2017-01-15T01:17:14.486Z,1015.61
2017-01-15T01:17:55.077Z,1015.59
2017-01-15T01:18:35.674Z,1015.59
2017-01-15T01:19:16.265Z,1015.61
2017-01-15T01:19:56.856Z,1015.59
2017-01-15T01:20:37.444Z,1015.63
2017-01-15T01:21:18.023Z,1015.6
2017-01-15T01:21:58.606Z,1015.63
2017-01-15T01:22:39.191Z,1015.65
2017-01-15T01:23:19.793Z,1015.62
2017-01-15T01:24:00.380Z,1015.63
2017-01-15T01:24:40.989Z,1015.63
2017-01-15T01:25:21.579Z,1015.57
2017-01-15T01:26:02.168Z,1015.54
2017-01-15T01:26:42.751Z,1015.54
2017-01-15T01:27:23.344Z,1015.53
2017-01-15T01:28:03.935Z,1015.48
2017-01-15T01:28:44.517Z,1015.43
2017-01-15T01:29:25.102Z,1015.48
2017-01-15T01:30:05.688Z,1015.4
2017-01-15T01:30:46.266Z,1015.43
2017-01-15T01:31:26.863Z,1015.43
2017-01-15T01:32:07.466Z,1015.39
2017-01-15T01:32:48.060Z,1015.4
2017-01-15T01:33:28.662Z,1015.39
2017-01-15T01:34:09.256Z,1015.42
2017-01-15T01:34:49.850Z,1015.4
2017-01-15T01:35:30.434Z,1015.41
2017-01-15T01:36:11.024Z,1015.4
2017-01-15T01:36:51.604Z,1015.41
2017-01-15T01:37:32.202Z,1015.4
2017-01-15T01:38:12.815Z,1015.4
2017-01-15T01:38:53.403Z,1015.37
2017-01-15T01:39:33.984Z,1015.4
2017-01-15T01:40:14.574Z,1015.39
2017-01-15T01:40:55.164Z,1015.34
2017-01-15T01:41:35.744Z,1015.29
2017-01-15T01:42:16.327Z,1015.27
2017-01-15T01:42:56.908Z,1015.27
2017-01-15T01:43:37.510Z,1015.24
2017-01-15T01:44:18.109Z,1015.26
2017-01-15T01:44:58.718Z,1015.3
2017-01-15T01:45:39.327Z,1015.28
2017-01-15T01:46:19.923Z,1015.33
2017-01-15T01:47:00.519Z,1015.34
2017-01-15T01:47:41.110Z,1015.37
2017-01-15T01:48:21.713Z,1015.38
2017-01-15T01:49:02.295Z,1015.39
2017-01-15T01:49:42.897Z,1015.45
2017-01-15T01:50:23.490Z,1015.39
2017-01-15T01:51:04.083Z,1015.44
2017-01-15T01:51:44.668Z,1015.45
2017-01-15T01:52:25.244Z,1015.41
2017-01-15T01:53:05.854Z,1015.45
2017-01-15T01:53:46.444Z,1015.45
2017-01-15T01:54:27.030Z,1015.34
2017-01-15T01:55:07.608Z,1015.33
2017-01-15T01:55:48.210Z,1015.3
2017-01-15T01:56:28.818Z,1015.29
2017-01-15T01:57:09.402Z,1015.34
2017-01-15T01:57:50.004Z,1015.31
2017-01-15T01:58:30.604Z,1015.3
2017-01-15T01:59:11.207Z,1015.33
2017-01-15T01:59:51.786Z,1015.35
2017-01-15T02:00:32.367Z,1015.38
2017-01-15T02:01:12.951Z,1015.39
2017-01-15T02:01:53.532Z,1015.41
2017-01-15T02:02:34.113Z,1015.42
2017-01-15T02:03:14.714Z,1015.44
2017-01-15T02:03:55.320Z,1015.43
2017-01-15T02:04:35.912Z,1015.39
2017-01-15T02:05:16.507Z,1015.35
2017-01-15T02:05:57.086Z,1015.35
2017-01-15T02:06:37.662Z,1015.33
2017-01-15T02:07:18.243Z,1015.34
2017-01-15T02:07:58.821Z,1015.31
2017-01-15T02:08:39.411Z,1015.29
2017-01-15T02:09:20.005Z,1015.28
2017-01-15T02:10:00.584Z,1015.31
2017-01-15T02:10:41.166Z,1015.25
2017-01-15T02:11:21.759Z,1015.25
2017-01-15T02:12:02.355Z,1015.25
2017-01-15T02:12:42.930Z,1015.23
2017-01-15T02:13:23.507Z,1015.18
2017-01-15T02:14:04.088Z,1015.18
2017-01-15T02:14:44.672Z,1015.19
2017-01-15T02:15:25.259Z,1015.19
2017-01-15T02:16:05.840Z,1015.25
2017-01-15T02:16:46.445Z,1015.28
2017-01-15T02:17:27.028Z,1015.24
2017-01-15T02:18:07.611Z,1015.23
2017-01-15T02:18:48.200Z,1015.24
2017-01-15T02:19:28.803Z,1015.24
2017-01-15T02:20:09.400Z,1015.2
2017-01-15T02:20:50.009Z,1015.19
2017-01-15T02:21:30.583Z,1015.2
2017-01-15T02:22:11.154Z,1015.17
2017-01-15T02:22:51.755Z,1015.19
2017-01-15T02:23:32.346Z,1015.23
2017-01-15T02:24:12.927Z,1015.18
2017-01-15T02:24:53.517Z,1015.25
2017-01-15T02:25:34.118Z,1015.27
2017-01-15T02:26:14.714Z,1015.23
2017-01-15T02:26:55.293Z,1015.21
2017-01-15T02:27:35.873Z,1015.16
2017-01-15T02:28:16.457Z,1015.2
2017-01-15T02:28:57.043Z,1015.21
2017-01-15T02:29:37.633Z,1015.2
2017-01-15T02:30:18.229Z,1015.19
2017-01-15T02:30:58.831Z,1015.14
2017-01-15T02:31:39.437Z,1015.14
2017-01-15T02:32:20.022Z,1015.12
2017-01-15T02:33:00.600Z,1015.1
2017-01-15T02:33:41.176Z,1015.15
2017-01-15T02:34:21.767Z,1015.13
2017-01-15T02:35:02.356Z,1015.15
2017-01-15T02:35:42.938Z,1015.15
2017-01-15T02:36:23.523Z,1015.17
2017-01-15T02:37:04.115Z,1015.17
2017-01-15T02:37:44.707Z,1015.13
2017-01-15T02:38:25.306Z,1015.13
2017-01-15T02:39:05.889Z,1015.17
2017-01-15T02:39:46.476Z,1015.2
2017-01-15T02:40:27.075Z,1015.19
2017-01-15T02:41:07.657Z,1015.14
2017-01-15T02:41:48.255Z,1015.1
2017-01-15T02:42:28.845Z,1015.13
2017-01-15T02:43:09.421Z,1015.17
2017-01-15T02:43:50.010Z,1015.21
2017-01-15T02:44:30.601Z,1015.22
2017-01-15T02:45:11.190Z,1015.17
2017-01-15T02:45:51.766Z,1015.11
2017-01-15T02:46:32.361Z,1015.16
2017-01-15T02:47:12.936Z,1015.2
2017-01-15T02:47:53.509Z,1015.19
2017-01-15T02:48:34.089Z,1015.22
2017-01-15T02:49:14.687Z,1015.2
2017-01-15T02:49:55.260Z,1015.17
2017-01-15T02:50:35.851Z,1015.14
2017-01-15T02:51:16.450Z,1015.18
2017-01-15T02:51:57.139Z,1015.16
2017-01-15T02:52:37.948Z,1015.17
2017-01-15T02:53:18.908Z,1015.15
2017-01-15T02:53:59.494Z,1015.12
2017-01-15T02:54:40.084Z,1015.18
2017-01-15T02:55:20.671Z,1015.16
2017-01-15T02:56:01.257Z,1015.2
2017-01-15T02:56:41.839Z,1015.18
2017-01-15T02:57:22.429Z,1015.16
2017-01-15T02:58:03.013Z,1015.16
2017-01-15T02:58:43.602Z,1015.13
2017-01-15T02:59:24.184Z,1015.09
2017-01-15T03:00:04.774Z,1015.1
2017-01-15T03:00:45.362Z,1015.11
2017-01-15T03:01:25.938Z,1015.11
2017-01-15T03:02:06.533Z,1015.11
2017-01-15T03:02:47.129Z,1015.11
2017-01-15T03:03:27.721Z,1015.12
2017-01-15T03:04:08.303Z,1015.09
2017-01-15T03:04:48.888Z,1015.06
2017-01-15T03:05:29.476Z,1015.02
2017-01-15T03:06:10.069Z,1014.99
2017-01-15T03:06:50.653Z,1014.98
2017-01-15T03:07:31.252Z,1014.99
2017-01-15T03:08:11.845Z,1014.99
2017-01-15T03:08:52.432Z,1015
2017-01-15T03:09:33.015Z,1015.03
2017-01-15T03:10:13.600Z,1015.03
2017-01-15T03:10:54.186Z,1015.07
2017-01-15T03:11:34.771Z,1015.02
2017-01-15T03:12:15.363Z,1015.03
2017-01-15T03:12:55.941Z,1015.03
2017-01-15T03:13:36.527Z,1015.03
2017-01-15T03:14:17.118Z,1015.03
2017-01-15T03:14:57.710Z,1015
2017-01-15T03:15:38.305Z,1014.97
2017-01-15T03:16:18.896Z,1015
2017-01-15T03:16:59.480Z,1015
2017-01-15T03:17:40.071Z,1014.93
2017-01-15T03:18:20.650Z,1014.93
2017-01-15T03:19:01.241Z,1014.9
2017-01-15T03:19:41.838Z,1014.86
2017-01-15T03:20:22.439Z,1014.89
2017-01-15T03:21:03.030Z,1014.84
2017-01-15T03:21:43.611Z,1014.78
2017-01-15T03:22:24.212Z,1014.88
2017-01-15T03:23:04.796Z,1014.83
2017-01-15T03:23:45.392Z,1014.82
2017-01-15T03:24:25.973Z,1014.83
2017-01-15T03:25:06.569Z,1014.78
2017-01-15T03:25:47.155Z,1014.76
2017-01-15T03:26:27.742Z,1014.77
2017-01-15T03:27:08.333Z,1014.78
2017-01-15T03:27:48.925Z,1014.82
2017-01-15T03:28:29.526Z,1014.83
2017-01-15T03:29:10.115Z,1014.8
2017-01-15T03:29:50.696Z,1014.77
2017-01-15T03:30:31.287Z,1014.81
2017-01-15T03:31:11.873Z,1014.8
2017-01-15T03:31:52.464Z,1014.77
2017-01-15T03:32:33.048Z,1014.77
2017-01-15T03:33:13.666Z,1014.76
2017-01-15T03:33:54.248Z,1014.76
2017-01-15T03:34:34.833Z,1014.83
2017-01-15T03:35:15.421Z,1014.77
2017-01-15T03:35:56.013Z,1014.79
2017-01-15T03:36:36.585Z,1014.78
2017-01-15T03:37:17.160Z,1014.8
2017-01-15T03:37:57.747Z,1014.82
2017-01-15T03:38:38.327Z,1014.84
2017-01-15T03:39:18.919Z,1014.83
2017-01-15T03:39:59.493Z,1014.87
2017-01-15T03:40:40.084Z,1014.87
2017-01-15T03:41:20.675Z,1014.88
2017-01-15T03:42:01.263Z,1014.87
2017-01-15T03:42:41.846Z,1014.85
2017-01-15T03:43:22.435Z,1014.82
2017-01-15T03:44:03.030Z,1014.82
2017-01-15T03:44:43.623Z,1014.87
2017-01-15T03:45:24.211Z,1014.83
2017-01-15T03:46:04.795Z,1014.81
2017-01-15T03:46:45.399Z,1014.78
2017-01-15T03:47:25.974Z,1014.78
2017-01-15T03:48:06.556Z,1014.75
2017-01-15T03:48:47.152Z,1014.76
2017-01-15T03:49:27.765Z,1014.78
2017-01-15T03:50:08.357Z,1014.8
2017-01-15T03:50:48.949Z,1014.77
2017-01-15T03:51:29.545Z,1014.76
2017-01-15T03:52:10.130Z,1014.76
2017-01-15T03:52:50.717Z,1014.77
2017-01-15T03:53:31.297Z,1014.73
2017-01-15T03:54:11.879Z,1014.75
2017-01-15T03:54:52.455Z,1014.74
2017-01-15T03:55:33.050Z,1014.74
2017-01-15T03:56:13.630Z,1014.75
2017-01-15T03:56:54.221Z,1014.78
2017-01-15T03:57:34.801Z,1014.77
2017-01-15T03:58:15.382Z,1014.76
2017-01-15T03:58:55.967Z,1014.81
2017-01-15T03:59:36.559Z,1014.76
2017-01-15T04:00:17.149Z,1014.79
2017-01-15T04:00:57.738Z,1014.77
2017-01-15T04:01:38.337Z,1014.74
2017-01-15T04:02:18.934Z,1014.79
2017-01-15T04:02:59.516Z,1014.77
2017-01-15T04:03:40.093Z,1014.7
2017-01-15T04:04:20.693Z,1014.71
2017-01-15T04:05:01.300Z,1014.71
2017-01-15T04:05:41.890Z,1014.72
2017-01-15T04:06:22.486Z,1014.68
2017-01-15T04:07:03.078Z,1014.67
2017-01-15T04:07:43.670Z,1014.65
2017-01-15T04:08:24.260Z,1014.66
2017-01-15T04:09:04.855Z,1014.66
2017-01-15T04:09:45.457Z,1014.64
2017-01-15T04:10:26.049Z,1014.65
2017-01-15T04:11:06.637Z,1014.64
2017-01-15T04:11:47.219Z,1014.62
2017-01-15T04:12:27.833Z,1014.61
2017-01-15T04:13:08.421Z,1014.59
2017-01-15T04:13:49.020Z,1014.58
2017-01-15T04:14:29.601Z,1014.61
2017-01-15T04:15:10.200Z,1014.52
2017-01-15T04:15:50.797Z,1014.53
2017-01-15T04:16:31.376Z,1014.52
2017-01-15T04:17:11.965Z,1014.47
2017-01-15T04:17:52.549Z,1014.52
2017-01-15T04:18:33.143Z,1014.49
2017-01-15T04:19:13.741Z,1014.48
2017-01-15T04:19:54.321Z,1014.5
2017-01-15T04:20:34.926Z,1014.5
2017-01-15T04:21:15.510Z,1014.54
2017-01-15T04:21:56.103Z,1014.49
2017-01-15T04:22:36.698Z,1014.46
2017-01-15T04:23:17.285Z,1014.47
2017-01-15T04:23:57.868Z,1014.43
2017-01-15T04:24:38.448Z,1014.46
2017-01-15T04:25:19.049Z,1014.49
2017-01-15T04:25:59.643Z,1014.44
2017-01-15T04:26:40.242Z,1014.46
2017-01-15T04:27:20.828Z,1014.5
2017-01-15T04:28:01.406Z,1014.45
2017-01-15T04:28:41.996Z,1014.46
2017-01-15T04:29:22.582Z,1014.5
2017-01-15T04:30:03.170Z,1014.45
2017-01-15T04:30:43.749Z,1014.48
2017-01-15T04:31:24.336Z,1014.5
2017-01-15T04:32:04.928Z,1014.44
2017-01-15T04:32:45.520Z,1014.41
2017-01-15T04:33:26.105Z,1014.47
2017-01-15T04:34:06.704Z,1014.46
2017-01-15T04:34:47.296Z,1014.53
2017-01-15T04:35:27.893Z,1014.48
2017-01-15T04:36:08.479Z,1014.53
2017-01-15T04:36:49.080Z,1014.51
2017-01-15T04:37:29.667Z,1014.52
2017-01-15T04:38:10.253Z,1014.44
2017-01-15T04:38:50.828Z,1014.45
2017-01-15T04:39:31.407Z,1014.47
2017-01-15T04:40:12.003Z,1014.41
2017-01-15T04:40:52.587Z,1014.41
2017-01-15T04:41:33.180Z,1014.41
2017-01-15T04:42:13.758Z,1014.43
2017-01-15T04:42:54.354Z,1014.38
2017-01-15T04:43:34.945Z,1014.37
2017-01-15T04:44:15.535Z,1014.38
2017-01-15T04:44:56.124Z,1014.39
2017-01-15T04:45:36.705Z,1014.35
2017-01-15T04:46:17.290Z,1014.34
2017-01-15T04:46:57.890Z,1014.31
2017-01-15T04:47:38.479Z,1014.28
2017-01-15T04:48:19.069Z,1014.25
2017-01-15T04:48:59.679Z,1014.27
2017-01-15T04:49:40.274Z,1014.29
2017-01-15T04:50:20.874Z,1014.26
2017-01-15T04:51:01.459Z,1014.22
2017-01-15T04:51:42.044Z,1014.23
2017-01-15T04:52:22.637Z,1014.18
2017-01-15T04:53:03.228Z,1014.21
2017-01-15T04:53:43.839Z,1014.22
2017-01-15T04:54:24.438Z,1014.2
2017-01-15T04:55:05.032Z,1014.19
2017-01-15T04:55:45.612Z,1014.17
2017-01-15T04:56:26.189Z,1014.16
2017-01-15T04:57:06.773Z,1014.16
2017-01-15T04:57:47.355Z,1014.18
2017-01-15T04:58:27.959Z,1014.13
2017-01-15T04:59:08.552Z,1014.14
2017-01-15T04:59:49.137Z,1014.14
2017-01-15T05:00:29.725Z,1014.13
2017-01-15T05:01:10.310Z,1014.16
2017-01-15T05:01:50.885Z,1014.12
2017-01-15T05:02:31.470Z,1014.15
2017-01-15T05:03:12.052Z,1014.12
2017-01-15T05:03:52.651Z,1014.13
2017-01-15T05:04:33.235Z,1014.12
2017-01-15T05:05:13.820Z,1014.12
2017-01-15T05:05:54.413Z,1014.14
2017-01-15T05:06:35.010Z,1014.12
2017-01-15T05:07:15.600Z,1014.14
2017-01-15T05:07:56.176Z,1014.13
2017-01-15T05:08:36.767Z,1014.13
2017-01-15T05:09:17.348Z,1014.13
2017-01-15T05:09:57.934Z,1014.1
2017-01-15T05:10:38.532Z,1014.08
2017-01-15T05:11:19.129Z,1014.08
2017-01-15T05:11:59.716Z,1014.07
2017-01-15T05:12:40.303Z,1014.09
2017-01-15T05:13:20.890Z,1014.05
2017-01-15T05:14:01.477Z,1014.12
2017-01-15T05:14:42.061Z,1014.11
2017-01-15T05:15:22.658Z,1014.12
2017-01-15T05:16:03.245Z,1014.13
2017-01-15T05:16:43.848Z,1014.11
2017-01-15T05:17:24.443Z,1014.08
2017-01-15T05:18:05.029Z,1014.12
2017-01-15T05:18:45.613Z,1014.15
2017-01-15T05:19:26.226Z,1014.13
2017-01-15T05:20:06.813Z,1014.11
2017-01-15T05:20:47.409Z,1014.13
2017-01-15T05:21:27.994Z,1014.13
2017-01-15T05:22:08.568Z,1014.09
2017-01-15T05:22:49.160Z,1014.13
2017-01-15T05:23:29.745Z,1014.08
2017-01-15T05:24:10.328Z,1014.09
2017-01-15T05:24:50.905Z,1014.06
2017-01-15T05:25:31.510Z,1014.07
2017-01-15T05:26:12.112Z,1014.06
2017-01-15T05:26:52.713Z,1014.02
2017-01-15T05:27:33.283Z,1014.04
2017-01-15T05:28:13.878Z,1014.06
2017-01-15T05:28:54.469Z,1014.05
2017-01-15T05:29:35.067Z,1014.01
2017-01-15T05:30:15.673Z,1014.02
2017-01-15T05:30:56.270Z,1013.99
2017-01-15T05:31:36.853Z,1014.04
2017-01-15T05:32:17.431Z,1014.06
2017-01-15T05:32:58.032Z,1014.09
2017-01-15T05:33:38.628Z,1014.1
2017-01-15T05:34:19.226Z,1014.1
2017-01-15T05:34:59.830Z,1014.13
2017-01-15T05:35:40.423Z,1014.15
2017-01-15T05:36:21.004Z,1014.13
2017-01-15T05:37:01.586Z,1014.13
2017-01-15T05:37:42.192Z,1014.13
2017-01-15T05:38:22.796Z,1014.16
2017-01-15T05:39:03.372Z,1014.17
2017-01-15T05:39:43.955Z,1014.2
2017-01-15T05:40:24.555Z,1014.21
2017-01-15T05:41:05.139Z,1014.2
2017-01-15T05:41:45.716Z,1014.23
2017-01-15T05:42:26.309Z,1014.21
2017-01-15T05:43:06.898Z,1014.23
2017-01-15T05:43:47.486Z,1014.21
2017-01-15T05:44:28.087Z,1014.21
2017-01-15T05:45:08.675Z,1014.15
2017-01-15T05:45:49.262Z,1014.08
2017-01-15T05:46:29.852Z,1014.03
2017-01-15T05:47:10.440Z,1014
2017-01-15T05:47:51.027Z,1014.02
2017-01-15T05:48:31.600Z,1014.06
2017-01-15T05:49:12.177Z,1014.09
2017-01-15T05:49:52.769Z,1014.11
2017-01-15T05:50:33.363Z,1014.11
2017-01-15T05:51:13.953Z,1014.08
2017-01-15T05:51:54.513Z,1014.08
2017-01-15T05:52:35.110Z,1014.1
2017-01-15T05:53:15.713Z,1014.06
2017-01-15T05:53:56.317Z,1013.99
2017-01-15T05:54:36.892Z,1013.98
2017-01-15T05:55:17.477Z,1014
2017-01-15T05:55:58.064Z,1013.99
2017-01-15T05:56:38.685Z,1014.04
2017-01-15T05:57:19.276Z,1014.05
2017-01-15T05:57:59.876Z,1014.11
2017-01-15T05:58:40.464Z,1014.14
2017-01-15T05:59:21.058Z,1014.14
2017-01-15T06:00:01.642Z,1014.13
2017-01-15T06:00:42.223Z,1014.09
2017-01-15T06:01:22.820Z,1014.09
2017-01-15T06:02:03.409Z,1014.03
2017-01-15T06:02:43.993Z,1013.98
2017-01-15T06:03:24.567Z,1013.96
2017-01-15T06:04:05.150Z,1013.99
2017-01-15T06:04:45.749Z,1013.98
2017-01-15T06:05:26.341Z,1014.01
2017-01-15T06:06:06.934Z,1013.98
2017-01-15T06:06:47.528Z,1014
2017-01-15T06:07:28.116Z,1013.99
2017-01-15T06:08:08.700Z,1013.95
2017-01-15T06:08:49.293Z,1013.94
2017-01-15T06:09:29.880Z,1013.97
2017-01-15T06:10:10.468Z,1013.99
2017-01-15T06:10:51.063Z,1013.99
2017-01-15T06:11:31.650Z,1014.01
2017-01-15T06:12:12.236Z,1014.02
2017-01-15T06:12:52.822Z,1014.03
2017-01-15T06:13:33.411Z,1014.02
2017-01-15T06:14:14.004Z,1014
2017-01-15T06:14:54.585Z,1013.98
2017-01-15T06:15:35.180Z,1013.96
2017-01-15T06:16:15.775Z,1013.95
2017-01-15T06:16:56.362Z,1013.93
2017-01-15T06:17:36.947Z,1013.95
2017-01-15T06:18:17.550Z,1013.9
2017-01-15T06:18:58.152Z,1013.9
2017-01-15T06:19:38.731Z,1013.85
2017-01-15T06:20:19.313Z,1013.85
2017-01-15T06:20:59.886Z,1013.89
2017-01-15T06:21:40.478Z,1013.89
2017-01-15T06:22:21.075Z,1013.9
2017-01-15T06:23:01.661Z,1013.92
2017-01-15T06:23:42.245Z,1013.95
2017-01-15T06:24:22.821Z,1013.94
2017-01-15T06:25:04.991Z,1013.93
2017-01-15T06:25:45.572Z,1013.95
2017-01-15T06:26:26.152Z,1013.99
2017-01-15T06:27:06.740Z,1014.01
2017-01-15T06:27:47.323Z,1014
2017-01-15T06:28:27.916Z,1013.93
2017-01-15T06:29:08.514Z,1013.92
2017-01-15T06:29:49.099Z,1013.91
2017-01-15T06:30:29.698Z,1013.89
2017-01-15T06:31:10.282Z,1013.89
2017-01-15T06:31:50.873Z,1013.9
2017-01-15T06:32:31.454Z,1013.94
2017-01-15T06:33:12.043Z,1013.93
2017-01-15T06:33:52.635Z,1013.98
2017-01-15T06:34:33.226Z,1013.93
2017-01-15T06:35:13.859Z,1013.89
2017-01-15T06:35:54.441Z,1013.9
2017-01-15T06:36:35.020Z,1013.83
2017-01-15T06:37:15.614Z,1013.84
2017-01-15T06:37:56.198Z,1013.79
2017-01-15T06:38:36.796Z,1013.83
2017-01-15T06:39:17.383Z,1013.89
2017-01-15T06:39:57.969Z,1013.93
2017-01-15T06:40:38.549Z,1013.95
2017-01-15T06:41:19.130Z,1013.94
2017-01-15T06:42:00.471Z,1013.93
2017-01-15T06:42:41.053Z,1013.94
2017-01-15T06:43:21.647Z,1013.93
2017-01-15T06:44:02.230Z,1013.92
2017-01-15T06:44:42.820Z,1013.91
2017-01-15T06:45:23.398Z,1013.92
2017-01-15T06:46:03.980Z,1013.87
2017-01-15T06:46:44.572Z,1013.87
2017-01-15T06:47:25.158Z,1013.91
2017-01-15T06:48:05.761Z,1013.88
2017-01-15T06:48:46.353Z,1013.9
2017-01-15T06:49:26.949Z,1013.93
2017-01-15T06:50:07.543Z,1013.95
2017-01-15T06:50:48.136Z,1013.97
2017-01-15T06:51:28.743Z,1013.98
2017-01-15T06:52:09.328Z,1013.91
2017-01-15T06:52:49.929Z,1013.9
2017-01-15T06:53:30.507Z,1013.87
2017-01-15T06:54:11.095Z,1013.9
2017-01-15T06:54:51.685Z,1013.86
2017-01-15T06:55:32.287Z,1013.85
2017-01-15T06:56:12.885Z,1013.81
2017-01-15T06:56:53.465Z,1013.82
2017-01-15T06:57:34.060Z,1013.85
2017-01-15T06:58:14.639Z,1013.86
2017-01-15T06:58:55.231Z,1013.83
2017-01-15T06:59:35.816Z,1013.8
2017-01-15T07:00:16.400Z,1013.84
2017-01-15T07:00:56.988Z,1013.82
2017-01-15T07:01:37.577Z,1013.84
2017-01-15T07:02:18.172Z,1013.83
2017-01-15T07:02:58.770Z,1013.84
2017-01-15T07:03:39.365Z,1013.8
2017-01-15T07:04:19.941Z,1013.81
2017-01-15T07:05:00.525Z,1013.82
2017-01-15T07:05:41.105Z,1013.83
2017-01-15T07:06:21.695Z,1013.8
2017-01-15T07:07:02.280Z,1013.85
2017-01-15T07:07:42.855Z,1013.8
2017-01-15T07:08:23.435Z,1013.81
2017-01-15T07:09:04.036Z,1013.83
2017-01-15T07:09:44.626Z,1013.8
2017-01-15T07:10:25.234Z,1013.82
2017-01-15T07:11:05.818Z,1013.78
2017-01-15T07:11:46.428Z,1013.79
2017-01-15T07:12:27.020Z,1013.77
2017-01-15T07:13:07.634Z,1013.75
2017-01-15T07:13:48.229Z,1013.76
2017-01-15T07:14:28.845Z,1013.77
2017-01-15T07:15:09.437Z,1013.77
2017-01-15T07:15:50.041Z,1013.75
2017-01-15T07:16:30.640Z,1013.75
2017-01-15T07:17:11.227Z,1013.76
2017-01-15T07:17:51.811Z,1013.76
2017-01-15T07:18:32.398Z,1013.81
2017-01-15T07:19:13.003Z,1013.84
2017-01-15T07:19:53.588Z,1013.82
2017-01-15T07:20:34.173Z,1013.79
2017-01-15T07:21:14.771Z,1013.83
2017-01-15T07:21:55.397Z,1013.83
2017-01-15T07:22:36.002Z,1013.8
2017-01-15T07:23:16.589Z,1013.84
2017-01-15T07:23:57.170Z,1013.82
2017-01-15T07:24:37.754Z,1013.86
2017-01-15T07:25:18.352Z,1013.85
2017-01-15T07:25:58.963Z,1013.85
2017-01-15T07:26:39.575Z,1013.82
2017-01-15T07:27:20.162Z,1013.83
2017-01-15T07:28:00.763Z,1013.79
2017-01-15T07:28:41.377Z,1013.78
2017-01-15T07:29:21.983Z,1013.77
2017-01-15T07:30:02.569Z,1013.75
2017-01-15T07:30:43.150Z,1013.78
2017-01-15T07:31:23.733Z,1013.78
2017-01-15T07:32:04.314Z,1013.77
2017-01-15T07:32:44.919Z,1013.75
2017-01-15T07:33:25.529Z,1013.78
2017-01-15T07:34:06.109Z,1013.75
2017-01-15T07:34:46.699Z,1013.73
2017-01-15T07:35:27.283Z,1013.7
2017-01-15T07:36:07.888Z,1013.72
2017-01-15T07:36:48.483Z,1013.74
2017-01-15T07:37:29.086Z,1013.71
2017-01-15T07:38:09.699Z,1013.74
2017-01-15T07:38:50.298Z,1013.68
2017-01-15T07:39:30.890Z,1013.68
2017-01-15T07:40:11.486Z,1013.67
2017-01-15T07:40:52.070Z,1013.65
2017-01-15T07:41:32.664Z,1013.63
2017-01-15T07:42:13.253Z,1013.64
2017-01-15T07:42:53.844Z,1013.62
2017-01-15T07:43:34.428Z,1013.64
2017-01-15T07:44:15.012Z,1013.66
2017-01-15T07:44:55.603Z,1013.61
2017-01-15T07:45:36.197Z,1013.66
2017-01-15T07:46:16.774Z,1013.65
2017-01-15T07:46:57.369Z,1013.67
2017-01-15T07:47:37.958Z,1013.65
2017-01-15T07:48:18.563Z,1013.65
2017-01-15T07:48:59.166Z,1013.7
2017-01-15T07:49:39.778Z,1013.71
2017-01-15T07:50:20.376Z,1013.72
2017-01-15T07:51:00.970Z,1013.67
2017-01-15T07:51:41.578Z,1013.7
2017-01-15T07:52:22.179Z,1013.67
2017-01-15T07:53:02.785Z,1013.7
2017-01-15T07:53:43.370Z,1013.68
2017-01-15T07:54:23.950Z,1013.71
2017-01-15T07:55:04.531Z,1013.72
2017-01-15T07:55:45.152Z,1013.71
2017-01-15T07:56:25.729Z,1013.69
2017-01-15T07:57:06.325Z,1013.71
2017-01-15T07:57:46.911Z,1013.71
2017-01-15T07:58:27.493Z,1013.73
2017-01-15T07:59:08.093Z,1013.75
2017-01-15T07:59:48.691Z,1013.73
2017-01-15T08:00:29.298Z,1013.7
2017-01-15T08:01:09.884Z,1013.71
2017-01-15T08:01:50.464Z,1013.74
2017-01-15T08:02:31.051Z,1013.76
2017-01-15T08:03:11.641Z,1013.76
2017-01-15T08:03:52.255Z,1013.79
2017-01-15T08:04:32.853Z,1013.79
2017-01-15T08:05:13.458Z,1013.72
2017-01-15T08:05:54.056Z,1013.74
2017-01-15T08:06:34.652Z,1013.69
2017-01-15T08:07:15.251Z,1013.73
2017-01-15T08:07:55.838Z,1013.76
2017-01-15T08:08:36.429Z,1013.78
2017-01-15T08:09:17.021Z,1013.77
2017-01-15T08:09:57.603Z,1013.74
2017-01-15T08:10:38.187Z,1013.68
2017-01-15T08:11:18.769Z,1013.67
2017-01-15T08:11:59.349Z,1013.65
2017-01-15T08:12:39.923Z,1013.64